Applegate, OR

1:12 AM PDT on August 30, 2014 (GMT -0700)
RVHPA Longsword Winery | Change Station
CLOSE
Current Station
Personal Weather Station
Location: Jacksonville, OR
Elevation: 1457 ft
Nearby Weather Stations

Elev 1457 ft 42.23 °N, 123.06 °W | Updated 9 seconds ago

Mostly Cloudy
Mostly Cloudy
62.4 °F
Feels Like 62.4 °F
N
7.0
Wind Variable Wind from NE
Gusts 11.0 mph

Today
High -- | Low -- °F
--% Chance of Precip.
Yesterday
High -- | Low -- °F
Precip. -- in
6:35 AM 7:49 PM
Waxing Crescent, 20% visible
Pressure 29.95 in
Visibility 10.0 miles
Clouds Clear
Dew Point Not available.
Humidity Not available.
Rainfall 0.00 in
Snow Depth Not available.
UV 0 out of 12
Pollen 6.50 out of 12
Air Quality Not available.
Flu Activity Not available.
METAR KMFR 300753Z AUTO 00000KT 10SM CLR 21/11 A2998 RMK AO2 SLP140 T02110106 403390156

More Conditions Fewer Conditions

Pressure 29.95 in
Visibility 10.0 miles
Clouds Clear
Dew Point Not available.
Humidity Not available.
Rainfall 0.00 in
Snow Depth Not available.
UV 0 out of 12
Pollen 6.50 out of 12
Air Quality Not available.
Flu Activity Not available.
METAR KMFR 300753Z AUTO 00000KT 10SM CLR 21/11 A2998 RMK AO2 SLP140 T02110106 403390156

More Conditions Fewer Conditions

10-Day Weather Forecast

Almanac

Astronomy

Aug. 30, 2014 Rise Set
Actual Time 6:35 AM PDT 7:49 PM PDT
Civil Twilight 6:06 AM PDT 8:18 PM PDT
Nautical Twilight 5:31 AM PDT 8:52 PM PDT
Astronomical Twilight 4:55 AM PDT 9:28 PM PDT
Moon 11:34 AM PDT 10:20 PM PDT
Length of Visible Light 14h 11m
Length of Day
13h 13m
Tomorrow will be 2m 43s shorter.
Waxing Crescent, 20% of the Moon is Illuminated
Today
Waxing Crescent
Sep 2
First Quarter
Sep 8
Full
Sep 15
Last Quarter
Sep 24
New

Today's Extremes

State Highs State Lows

Community

WunderPhotos

Upload Photos

1,748,468 photos uploaded!

Nearby

Snow Depth

Station Depth Elevation
Bigelow Camp 1 in 5120 ft
Fish Lake 0 in 4665 ft
Billie Creek Divide 0 in 5300 ft
Fourmile Lake 2 in 6000 ft
Cold Springs Camp 0 in 6100 ft

Earthquake Activity

City Distance Mag. Time & Date
No recent earthquake activity has been reported nearby.
Minimum magnitude displayed is 2.5.

Coastal Water Temperatures

Place Temperature
No Stations Reporting

Nearby Weather Stations